createdAt,value
2019-05-18T00:02:09.121Z,1.20
2019-05-18T00:04:35.619Z,1.10
2019-05-18T00:07:02.123Z,1.00
2019-05-18T00:09:28.466Z,1.10
2019-05-18T00:11:54.876Z,1.03
2019-05-18T00:14:21.449Z,1.10
2019-05-18T00:16:47.773Z,1.20
2019-05-18T00:19:14.106Z,0.90
2019-05-18T00:21:40.479Z,1.10
2019-05-18T00:24:08.171Z,1.10
2019-05-18T00:26:33.316Z,1.10
2019-05-18T00:28:59.696Z,1.10
2019-05-18T00:31:26.198Z,1.00
2019-05-18T00:33:52.564Z,1.00
2019-05-18T00:36:18.890Z,1.00
2019-05-18T00:38:51.325Z,1.10
2019-05-18T00:41:17.680Z,1.00
2019-05-18T00:43:44.071Z,1.13
2019-05-18T00:46:10.499Z,1.10
2019-05-18T00:48:36.850Z,0.90
2019-05-18T00:51:03.247Z,1.10
2019-05-18T00:53:29.610Z,1.00
2019-05-18T00:55:55.947Z,1.20
2019-05-18T00:58:22.346Z,1.10
2019-05-18T01:00:48.697Z,0.90
2019-05-18T01:03:15.053Z,1.00
2019-05-18T01:05:41.426Z,1.10
2019-05-18T01:10:34.178Z,0.90
2019-05-18T01:13:00.634Z,1.10
2019-05-18T01:15:26.957Z,1.10
2019-05-18T01:17:57.563Z,1.10
2019-05-18T01:20:19.635Z,1.20
2019-05-18T01:22:46.160Z,1.07
2019-05-18T01:25:12.526Z,0.90
2019-05-18T01:27:39.017Z,1.10
2019-05-18T01:30:05.368Z,1.10
2019-05-18T01:32:31.873Z,1.03
2019-05-18T01:34:58.204Z,1.10
2019-05-18T01:37:24.759Z,1.20
2019-05-18T01:39:51.079Z,1.00
2019-05-18T01:44:43.809Z,1.03
2019-05-18T01:47:10.148Z,0.90
2019-05-18T01:49:36.506Z,1.10
2019-05-18T01:52:02.930Z,1.07
2019-05-18T01:54:29.240Z,1.20
2019-05-18T01:56:57.869Z,1.10
2019-05-18T01:59:24.181Z,0.90
2019-05-18T02:01:50.512Z,0.90
2019-05-18T02:04:16.867Z,1.17
2019-05-18T02:06:43.231Z,1.10
2019-05-18T02:09:09.624Z,1.00
2019-05-18T02:11:35.936Z,0.90
2019-05-18T02:14:02.343Z,0.90
2019-05-18T02:18:55.096Z,0.90
2019-05-18T02:21:21.380Z,1.00
2019-05-18T02:23:47.728Z,1.00
2019-05-18T02:26:14.049Z,1.00
2019-05-18T02:28:40.551Z,1.07
2019-05-18T02:31:06.871Z,1.23
2019-05-18T02:33:33.244Z,1.27
2019-05-18T02:35:59.688Z,1.00
2019-05-18T02:38:26.038Z,1.00
2019-05-18T02:40:52.418Z,0.90
2019-05-18T02:43:18.795Z,1.00
2019-05-18T02:45:45.125Z,1.10
2019-05-18T02:48:11.507Z,1.00
2019-05-18T02:53:04.243Z,0.97
2019-05-18T02:55:30.699Z,0.93
2019-05-18T02:57:57.043Z,0.93
2019-05-18T03:00:23.416Z,1.00
2019-05-18T03:02:49.789Z,0.90
2019-05-18T03:05:16.185Z,1.00
2019-05-18T03:07:42.667Z,0.90
2019-05-18T03:10:09.234Z,0.90
2019-05-18T03:12:35.605Z,0.93
2019-05-18T03:15:01.971Z,1.00
2019-05-18T03:17:28.288Z,1.10
2019-05-18T03:19:54.887Z,0.97
2019-05-18T03:22:21.242Z,0.90
2019-05-18T03:24:47.600Z,0.80
2019-05-18T03:27:13.955Z,1.00
2019-05-18T03:29:40.392Z,0.90
2019-05-18T03:32:06.756Z,1.00
2019-05-18T03:34:33.192Z,1.00
2019-05-18T03:36:59.454Z,1.00
2019-05-18T03:39:25.802Z,0.80
2019-05-18T03:41:52.128Z,1.00
2019-05-18T03:44:18.522Z,1.10
2019-05-18T03:46:44.869Z,0.90
2019-05-18T03:49:25.494Z,1.10
2019-05-18T03:51:37.747Z,0.90
2019-05-18T03:54:04.133Z,1.00
2019-05-18T03:56:30.629Z,1.27
2019-05-18T03:58:57.063Z,1.10
2019-05-18T04:01:23.471Z,0.97
2019-05-18T04:03:49.814Z,1.30
2019-05-18T04:06:16.203Z,1.00
2019-05-18T04:08:42.598Z,1.10
2019-05-18T04:11:09.075Z,1.20
2019-05-18T04:13:35.452Z,1.17
2019-05-18T04:16:01.798Z,1.00
2019-05-18T04:18:28.144Z,1.10
2019-05-18T04:20:54.524Z,1.00
2019-05-18T04:23:20.916Z,1.00
2019-05-18T04:25:47.357Z,1.10
2019-05-18T04:28:13.713Z,1.10
2019-05-18T04:30:40.114Z,1.00
2019-05-18T04:33:06.469Z,1.00
2019-05-18T04:35:32.792Z,1.10
2019-05-18T04:37:59.126Z,1.00
2019-05-18T04:40:25.555Z,1.20
2019-05-18T04:42:52.013Z,1.13
2019-05-18T04:45:18.366Z,1.00
2019-05-18T04:47:48.530Z,1.03
2019-05-18T04:50:11.089Z,1.10
2019-05-18T04:52:37.412Z,1.00
2019-05-18T04:57:30.140Z,1.20
2019-05-18T04:59:56.507Z,1.03
2019-05-18T05:02:22.920Z,1.13
2019-05-18T05:04:52.620Z,1.23
2019-05-18T05:07:15.692Z,1.00
2019-05-18T05:09:42.247Z,1.30
2019-05-18T05:12:08.763Z,1.37
2019-05-18T05:14:35.124Z,1.20
2019-05-18T05:17:01.514Z,1.07
2019-05-18T05:19:27.889Z,1.23
2019-05-18T05:21:54.209Z,1.10
2019-05-18T05:24:20.588Z,1.00
2019-05-18T05:26:46.975Z,1.10
2019-05-18T05:31:39.814Z,1.07
2019-05-18T05:34:06.338Z,1.00
2019-05-18T05:36:32.686Z,1.10
2019-05-18T05:38:59.039Z,1.10
2019-05-18T05:41:25.369Z,1.00
2019-05-18T05:43:51.884Z,1.20
2019-05-18T05:46:18.278Z,1.27
2019-05-18T05:48:44.745Z,1.20
2019-05-18T05:51:11.180Z,1.30
2019-05-18T05:53:37.616Z,1.30
2019-05-18T05:56:03.966Z,1.10
2019-05-18T05:58:30.507Z,1.10
2019-05-18T06:00:56.917Z,1.33
2019-05-18T06:05:49.659Z,1.20
2019-05-18T06:08:15.992Z,1.10
2019-05-18T06:10:42.369Z,1.10
2019-05-18T06:13:08.758Z,1.20
2019-05-18T06:15:35.161Z,1.07
2019-05-18T06:18:01.461Z,1.23
2019-05-18T06:20:27.987Z,1.13
2019-05-18T06:22:54.323Z,1.00
2019-05-18T06:25:20.712Z,1.30
2019-05-18T06:27:47.089Z,1.20
2019-05-18T06:30:13.596Z,1.10
2019-05-18T06:32:39.937Z,1.13
2019-05-18T06:35:06.286Z,1.03
2019-05-18T06:37:32.608Z,1.30
2019-05-18T06:39:59.128Z,1.00
2019-05-18T06:42:25.497Z,1.00
2019-05-18T06:44:51.991Z,1.10
2019-05-18T06:47:18.317Z,1.50
2019-05-18T06:49:44.897Z,1.20
2019-05-18T06:52:11.231Z,1.20
2019-05-18T06:54:37.825Z,1.20
2019-05-18T06:57:04.281Z,1.20
2019-05-18T06:59:30.680Z,0.93
2019-05-18T07:01:56.938Z,1.23
2019-05-18T07:04:23.452Z,1.33
2019-05-18T07:06:49.795Z,1.30
2019-05-18T07:09:16.157Z,1.33
2019-05-18T07:11:42.514Z,1.10
2019-05-18T07:14:09.164Z,1.30
2019-05-18T07:16:35.575Z,1.10
2019-05-18T07:19:01.841Z,1.17
2019-05-18T07:23:54.570Z,1.10
2019-05-18T07:26:21.141Z,1.30
2019-05-18T07:28:47.471Z,1.20
2019-05-18T07:31:13.830Z,1.30
2019-05-18T07:33:40.227Z,1.30
2019-05-18T07:36:06.552Z,1.40
2019-05-18T07:38:32.942Z,1.40
2019-05-18T07:40:59.422Z,1.50
2019-05-18T07:43:25.752Z,1.20
2019-05-18T07:45:52.280Z,1.40
2019-05-18T07:48:18.706Z,1.50
2019-05-18T07:50:45.071Z,1.30
2019-05-18T07:53:11.469Z,1.40
2019-05-18T07:55:37.871Z,1.57
2019-05-18T07:58:04.356Z,1.40
2019-05-18T08:00:30.894Z,1.53
2019-05-18T08:02:57.223Z,1.60
2019-05-18T08:05:23.574Z,1.40
2019-05-18T08:07:49.910Z,1.57
2019-05-18T08:10:16.406Z,1.60
2019-05-18T08:12:42.821Z,1.67
2019-05-18T08:15:09.279Z,1.73
2019-05-18T08:17:35.682Z,1.77
2019-05-18T08:20:02.108Z,1.60
2019-05-18T08:22:28.564Z,1.90
2019-05-18T08:24:54.931Z,1.90
2019-05-18T08:27:21.249Z,1.90
2019-05-18T08:29:47.675Z,1.73
2019-05-18T08:32:14.011Z,1.70
2019-05-18T08:34:40.539Z,1.97
2019-05-18T08:37:06.946Z,1.80
2019-05-18T08:39:33.606Z,2.00
2019-05-18T08:42:00.225Z,1.80
2019-05-18T08:44:26.678Z,1.87
2019-05-18T08:46:53.029Z,2.20
2019-05-18T08:49:19.392Z,1.80
2019-05-18T08:51:45.732Z,2.00
2019-05-18T08:54:12.185Z,2.00
2019-05-18T08:56:38.538Z,2.10
2019-05-18T08:59:04.975Z,2.17
2019-05-18T09:01:31.258Z,2.23
2019-05-18T09:03:59.085Z,2.30
2019-05-18T09:06:24.259Z,2.20
2019-05-18T09:08:50.587Z,1.90
2019-05-18T09:11:16.947Z,2.40
2019-05-18T09:13:43.276Z,2.10
2019-05-18T09:16:09.787Z,2.10
2019-05-18T09:18:36.130Z,1.80
2019-05-18T09:21:02.555Z,1.83
2019-05-18T09:23:29.000Z,1.90
2019-05-18T09:28:21.740Z,2.20
2019-05-18T09:30:48.089Z,2.10
2019-05-18T09:33:14.613Z,1.80
2019-05-18T09:35:40.987Z,1.90
2019-05-18T09:38:07.384Z,1.70
2019-05-18T09:40:33.725Z,2.03
2019-05-18T09:43:00.090Z,1.97
2019-05-18T09:45:26.490Z,1.87
2019-05-18T09:47:52.809Z,2.10
2019-05-18T09:50:19.153Z,1.87
2019-05-18T09:52:46.293Z,1.90
2019-05-18T09:55:11.976Z,1.97
2019-05-18T09:57:38.327Z,1.90
2019-05-18T10:00:04.852Z,2.00
2019-05-18T10:02:31.386Z,1.90
2019-05-18T10:04:57.726Z,1.87
2019-05-18T10:07:24.046Z,1.83
2019-05-18T10:09:50.430Z,2.00
2019-05-18T10:12:16.914Z,2.20
2019-05-18T10:14:43.241Z,1.60
2019-05-18T10:17:09.771Z,1.70
2019-05-18T10:19:36.102Z,1.60
2019-05-18T10:22:02.469Z,1.90
2019-05-18T10:24:28.820Z,1.50
2019-05-18T10:26:55.147Z,1.80
2019-05-18T10:29:21.527Z,1.70
2019-05-18T10:31:47.867Z,1.80
2019-05-18T10:34:14.430Z,1.60
2019-05-18T10:36:40.918Z,1.87
2019-05-18T10:39:07.248Z,1.97
2019-05-18T10:41:33.605Z,1.80
2019-05-18T10:44:00.026Z,1.70
2019-05-18T10:46:26.403Z,1.90
2019-05-18T10:48:52.742Z,2.07
2019-05-18T10:51:19.115Z,1.90
2019-05-18T10:53:45.452Z,1.70
2019-05-18T10:56:11.814Z,1.60
2019-05-18T10:58:38.142Z,1.70
2019-05-18T11:01:04.681Z,1.83
2019-05-18T11:03:30.990Z,1.70
2019-05-18T11:05:57.371Z,1.70
2019-05-18T11:08:23.722Z,1.60
2019-05-18T11:10:50.173Z,1.70
2019-05-18T11:13:17.355Z,1.90
2019-05-18T11:15:42.922Z,1.80
2019-05-18T11:18:09.281Z,1.80
2019-05-18T11:20:35.668Z,1.80
2019-05-18T11:23:02.010Z,1.70
2019-05-18T11:25:28.496Z,1.60
2019-05-18T11:27:54.823Z,1.70
2019-05-18T11:30:21.388Z,1.70
2019-05-18T11:32:47.728Z,1.90
2019-05-18T11:35:14.199Z,1.90
2019-05-18T11:37:40.729Z,1.77
2019-05-18T11:40:07.111Z,1.70
2019-05-18T11:42:33.420Z,1.53
2019-05-18T11:44:59.776Z,1.60
2019-05-18T11:47:26.153Z,2.00
2019-05-18T11:49:52.646Z,1.87
2019-05-18T11:54:45.453Z,1.80
2019-05-18T11:57:11.867Z,1.80
2019-05-18T11:59:38.168Z,1.90
2019-05-18T12:02:04.621Z,1.70
2019-05-18T12:04:30.887Z,2.00
2019-05-18T12:06:57.527Z,1.70
2019-05-18T12:09:23.869Z,1.70
2019-05-18T12:11:50.196Z,1.57
2019-05-18T12:14:16.582Z,1.87
2019-05-18T12:16:43.038Z,2.27
2019-05-18T12:19:09.416Z,1.70
2019-05-18T12:21:35.746Z,1.80
2019-05-18T12:24:14.969Z,1.73
2019-05-18T12:28:54.829Z,1.57
2019-05-18T12:31:21.322Z,2.00
2019-05-18T12:33:47.791Z,1.90
2019-05-18T12:36:15.746Z,1.60
2019-05-18T12:38:40.460Z,1.70
2019-05-18T12:41:06.850Z,1.60
2019-05-18T12:43:33.264Z,1.77
2019-05-18T12:45:59.597Z,1.83
2019-05-18T12:48:25.977Z,1.90
2019-05-18T12:50:52.292Z,1.60
2019-05-18T12:53:18.664Z,1.60
2019-05-18T12:55:45.152Z,1.50
2019-05-18T12:58:11.661Z,1.70
2019-05-18T13:00:38.050Z,1.60
2019-05-18T13:03:04.403Z,1.50
2019-05-18T13:05:30.879Z,1.53
2019-05-18T13:07:57.415Z,1.80
2019-05-18T13:12:50.357Z,1.70
2019-05-18T13:15:16.794Z,1.63
2019-05-18T13:17:43.381Z,1.60
2019-05-18T13:20:09.709Z,1.60
2019-05-18T13:22:36.199Z,1.50
2019-05-18T13:25:02.543Z,1.57
2019-05-18T13:27:38.707Z,1.40
2019-05-18T13:29:55.411Z,1.70
2019-05-18T13:32:21.950Z,1.50
2019-05-18T13:34:48.288Z,1.70
2019-05-18T13:37:14.746Z,1.90
2019-05-18T13:39:41.076Z,1.50
2019-05-18T13:42:07.464Z,1.60
2019-05-18T13:47:00.175Z,1.43
2019-05-18T13:49:26.541Z,1.30
2019-05-18T13:51:53.204Z,1.73
2019-05-18T13:54:19.738Z,1.80
2019-05-18T13:56:46.125Z,1.33
2019-05-18T13:59:12.593Z,1.37
2019-05-18T14:01:38.930Z,1.37
2019-05-18T14:04:05.274Z,1.70
2019-05-18T14:06:31.646Z,1.60
2019-05-18T14:08:58.179Z,1.40
2019-05-18T14:11:24.513Z,1.57
2019-05-18T14:13:50.983Z,1.60
2019-05-18T14:16:17.314Z,1.77
2019-05-18T14:18:43.705Z,1.57
2019-05-18T14:21:10.058Z,1.43
2019-05-18T14:23:36.476Z,1.20
2019-05-18T14:26:02.819Z,1.47
2019-05-18T14:28:29.212Z,1.53
2019-05-18T14:30:55.542Z,1.57
2019-05-18T14:33:21.940Z,1.60
2019-05-18T14:35:48.395Z,1.50
2019-05-18T14:38:14.768Z,1.60
2019-05-18T14:40:41.107Z,1.57
2019-05-18T14:43:07.435Z,1.30
2019-05-18T14:45:36.130Z,1.37
2019-05-18T14:48:02.479Z,1.67
2019-05-18T14:50:28.908Z,1.60
2019-05-18T14:52:55.194Z,1.40
2019-05-18T14:55:32.733Z,1.63
2019-05-18T14:57:47.932Z,1.30
2019-05-18T15:00:14.450Z,1.50
2019-05-18T15:02:40.792Z,1.40
2019-05-18T15:05:07.143Z,1.40
2019-05-18T15:07:33.515Z,1.50
2019-05-18T15:09:59.863Z,1.47
2019-05-18T15:12:26.397Z,1.40
2019-05-18T15:17:19.159Z,1.40
2019-05-18T15:19:45.680Z,1.60
2019-05-18T15:22:12.023Z,1.27
2019-05-18T15:24:38.399Z,1.33
2019-05-18T15:27:04.785Z,1.50
2019-05-18T15:29:31.170Z,1.67
2019-05-18T15:31:57.501Z,1.43
2019-05-18T15:34:23.881Z,1.40
2019-05-18T15:36:50.220Z,1.20
2019-05-18T15:39:16.584Z,1.60
2019-05-18T15:41:43.181Z,1.33
2019-05-18T15:44:09.592Z,1.47
2019-05-18T15:46:35.917Z,1.60
2019-05-18T15:49:02.377Z,1.30
2019-05-18T15:51:28.709Z,1.30
2019-05-18T15:53:55.121Z,1.60
2019-05-18T15:56:21.559Z,1.10
2019-05-18T15:58:47.871Z,1.33
2019-05-18T16:01:14.218Z,1.40
2019-05-18T16:03:40.582Z,1.40
2019-05-18T16:06:06.966Z,1.23
2019-05-18T16:08:33.294Z,1.30
2019-05-18T16:10:59.756Z,1.40
2019-05-18T16:13:26.141Z,1.20
2019-05-18T16:15:52.617Z,1.40
2019-05-18T16:18:18.991Z,1.50
2019-05-18T16:20:45.505Z,1.40
2019-05-18T16:25:38.232Z,1.20
2019-05-18T16:28:04.606Z,1.30
2019-05-18T16:30:30.933Z,1.20
2019-05-18T16:32:57.345Z,1.50
2019-05-18T16:35:23.748Z,1.33
2019-05-18T16:37:50.210Z,1.40
2019-05-18T16:40:16.567Z,1.37
2019-05-18T16:42:46.374Z,1.40
2019-05-18T16:47:35.806Z,1.27
2019-05-18T16:50:02.153Z,1.27
2019-05-18T16:52:28.581Z,1.20
2019-05-18T16:54:55.029Z,1.27
2019-05-18T16:57:21.468Z,1.40
2019-05-18T16:59:47.804Z,1.37
2019-05-18T17:02:30.316Z,1.50
2019-05-18T17:04:40.681Z,1.10
2019-05-18T17:07:07.045Z,1.30
2019-05-18T17:09:33.540Z,1.10
2019-05-18T17:11:59.863Z,1.10
2019-05-18T17:14:26.386Z,1.50
2019-05-18T17:16:52.735Z,1.43
2019-05-18T17:21:45.418Z,1.33
2019-05-18T17:24:11.829Z,1.40
2019-05-18T17:26:51.785Z,1.30
2019-05-18T17:29:04.533Z,1.43
2019-05-18T17:31:31.013Z,1.23
2019-05-18T17:33:57.345Z,1.40
2019-05-18T17:36:23.725Z,1.40
2019-05-18T17:38:50.212Z,1.30
2019-05-18T17:41:16.623Z,1.50
2019-05-18T17:43:42.928Z,1.40
2019-05-18T17:46:09.411Z,1.50
2019-05-18T17:48:35.793Z,1.80
2019-05-18T17:51:02.117Z,1.60
2019-05-18T17:55:54.943Z,1.73
2019-05-18T17:58:21.263Z,1.43
2019-05-18T18:00:47.626Z,1.40
2019-05-18T18:03:14.005Z,1.57
2019-05-18T18:05:40.458Z,1.53
2019-05-18T18:08:06.812Z,1.40
2019-05-18T18:10:33.273Z,1.47
2019-05-18T18:12:59.621Z,1.53
2019-05-18T18:15:25.998Z,1.30
2019-05-18T18:17:52.362Z,1.40
2019-05-18T18:20:18.736Z,1.40
2019-05-18T18:22:45.051Z,1.40
2019-05-18T18:25:11.384Z,1.67
2019-05-18T18:27:37.823Z,1.50
2019-05-18T18:30:04.185Z,1.40
2019-05-18T18:32:30.515Z,1.40
2019-05-18T18:34:56.861Z,1.53
2019-05-18T18:37:23.368Z,1.40
2019-05-18T18:39:49.702Z,1.50
2019-05-18T18:42:16.105Z,1.63
2019-05-18T18:44:42.401Z,1.40
2019-05-18T18:47:08.728Z,1.50
2019-05-18T18:49:35.098Z,1.50
2019-05-18T18:52:01.431Z,1.40
2019-05-18T18:54:27.802Z,1.40
2019-05-18T18:56:54.129Z,1.30
2019-05-18T18:59:20.470Z,1.30
2019-05-18T19:01:46.804Z,1.30
2019-05-18T19:04:13.235Z,1.40
2019-05-18T19:06:39.666Z,1.30
2019-05-18T19:09:05.979Z,1.30
2019-05-18T19:11:32.373Z,1.37
2019-05-18T19:13:58.702Z,1.50
2019-05-18T19:16:25.075Z,1.40
2019-05-18T19:18:51.444Z,1.40
2019-05-18T19:21:17.757Z,1.70
2019-05-18T19:26:10.461Z,1.57
2019-05-18T19:28:36.902Z,1.77
2019-05-18T19:31:03.434Z,1.60
2019-05-18T19:33:29.798Z,1.33
2019-05-18T19:35:56.217Z,1.57
2019-05-18T19:38:22.684Z,1.60
2019-05-18T19:40:49.077Z,1.80
2019-05-18T19:43:15.410Z,1.77
2019-05-18T19:45:41.778Z,1.47
2019-05-18T19:48:08.259Z,1.60
2019-05-18T19:50:34.600Z,1.60
2019-05-18T19:53:01.153Z,2.00
2019-05-18T19:55:27.470Z,1.60
2019-05-18T19:57:53.959Z,1.43
2019-05-18T20:00:20.299Z,1.30
2019-05-18T20:02:46.748Z,1.60
2019-05-18T20:05:13.061Z,1.70
2019-05-18T20:07:39.509Z,1.60
2019-05-18T20:10:05.915Z,1.40
2019-05-18T20:12:32.270Z,1.60
2019-05-18T20:14:58.602Z,1.47
2019-05-18T20:17:24.968Z,1.43
2019-05-18T20:19:51.311Z,1.60
2019-05-18T20:22:17.731Z,1.90
2019-05-18T20:24:44.136Z,1.50
2019-05-18T20:27:10.499Z,1.67
2019-05-18T20:29:36.845Z,1.53
2019-05-18T20:32:03.175Z,1.60
2019-05-18T20:34:29.666Z,1.30
2019-05-18T20:36:55.994Z,1.60
2019-05-18T20:39:22.351Z,1.70
2019-05-18T20:44:15.212Z,1.63
2019-05-18T20:46:41.594Z,1.70
2019-05-18T20:49:08.163Z,1.83
2019-05-18T20:51:34.517Z,1.50
2019-05-18T20:54:00.936Z,1.50
2019-05-18T20:56:27.475Z,1.60
2019-05-18T20:58:53.799Z,1.40
2019-05-18T21:01:20.337Z,1.70
2019-05-18T21:03:46.668Z,1.47
2019-05-18T21:06:13.215Z,1.60
2019-05-18T21:08:39.570Z,1.43
2019-05-18T21:11:06.057Z,1.50
2019-05-18T21:13:32.417Z,1.73
2019-05-18T21:18:25.191Z,1.67
2019-05-18T21:20:51.700Z,1.50
2019-05-18T21:23:18.051Z,1.80
2019-05-18T21:25:44.401Z,1.73
2019-05-18T21:28:10.724Z,1.70
2019-05-18T21:30:37.240Z,1.60
2019-05-18T21:33:03.753Z,1.70
2019-05-18T21:35:30.091Z,1.53
2019-05-18T21:37:56.495Z,1.60
2019-05-18T21:40:26.074Z,1.60
2019-05-18T21:42:49.289Z,1.60
2019-05-18T21:45:17.030Z,1.60
2019-05-18T21:47:42.256Z,1.70
2019-05-18T21:52:34.952Z,1.60
2019-05-18T21:55:01.598Z,1.50
2019-05-18T21:57:27.903Z,1.73
2019-05-18T21:59:54.423Z,1.40
2019-05-18T22:02:20.798Z,1.30
2019-05-18T22:04:49.143Z,1.30
2019-05-18T22:07:13.595Z,1.30
2019-05-18T22:09:39.940Z,1.50
2019-05-18T22:12:06.271Z,1.70
2019-05-18T22:14:32.793Z,1.70
2019-05-18T22:16:59.228Z,1.50
2019-05-18T22:19:25.674Z,1.50
2019-05-18T22:21:52.023Z,1.70
2019-05-18T22:24:18.531Z,1.50
2019-05-18T22:26:45.050Z,1.50
2019-05-18T22:29:11.408Z,1.30
2019-05-18T22:31:37.776Z,1.40
2019-05-18T22:36:30.507Z,1.50
2019-05-18T22:38:56.845Z,1.40
2019-05-18T22:41:23.236Z,1.33
2019-05-18T22:43:49.599Z,1.30
2019-05-18T22:46:16.145Z,1.40
2019-05-18T22:48:42.487Z,1.60
2019-05-18T22:51:08.987Z,1.40
2019-05-18T22:53:35.412Z,1.50
2019-05-18T22:56:01.816Z,1.50
2019-05-18T22:58:28.310Z,1.30
2019-05-18T23:00:54.631Z,1.40
2019-05-18T23:03:21.079Z,1.53
2019-05-18T23:05:47.416Z,1.50
2019-05-18T23:10:40.169Z,1.20
2019-05-18T23:13:06.597Z,1.50
2019-05-18T23:15:32.932Z,1.50
2019-05-18T23:17:59.340Z,1.37
2019-05-18T23:20:25.866Z,1.50
2019-05-18T23:22:52.196Z,1.13
2019-05-18T23:25:18.729Z,1.30
2019-05-18T23:27:45.073Z,1.40
2019-05-18T23:30:11.505Z,1.53
2019-05-18T23:32:37.834Z,1.30
2019-05-18T23:35:04.268Z,1.30
2019-05-18T23:37:30.596Z,1.37
2019-05-18T23:39:57.125Z,1.30
2019-05-18T23:44:49.974Z,1.40
2019-05-18T23:47:16.298Z,1.50
2019-05-18T23:49:42.675Z,1.50
2019-05-18T23:52:09.036Z,1.50
2019-05-18T23:54:35.497Z,1.40
2019-05-18T23:57:01.946Z,1.40
2019-05-18T23:59:28.268Z,1.30
